createdAt,value
2017-08-01T00:00:36.292Z,86.86
2017-08-01T00:01:36.936Z,86.76
2017-08-01T00:02:37.567Z,86.66
2017-08-01T00:03:38.201Z,87.34
2017-08-01T00:04:38.844Z,87.05
2017-08-01T00:05:39.674Z,86.76
2017-08-01T00:06:40.520Z,86.86
2017-08-01T00:07:41.155Z,87.24
2017-08-01T00:08:41.790Z,87.15
2017-08-01T00:09:42.428Z,85.99
2017-08-01T00:10:43.069Z,86.66
2017-08-01T00:11:43.702Z,86.28
2017-08-01T00:12:44.391Z,87.05
2017-08-01T00:13:45.029Z,86.96
2017-08-01T00:27:30.429Z,86.66
2017-08-01T00:28:31.066Z,87.34
2017-08-01T00:29:31.708Z,87.34
2017-08-01T00:30:32.342Z,87.63
2017-08-01T00:31:33.178Z,87.34
2017-08-01T00:32:33.811Z,86.76
2017-08-01T00:33:34.453Z,87.15
2017-08-01T00:34:35.085Z,86.86
2017-08-01T00:35:35.730Z,86.66
2017-08-01T00:36:36.363Z,87.44
2017-08-01T00:37:37.006Z,86.47
2017-08-01T00:38:37.635Z,86.76
2017-08-01T00:39:38.421Z,87.53
2017-08-01T00:40:39.062Z,86.66
2017-08-01T00:41:39.700Z,86.96
2017-08-01T00:42:40.336Z,87.44
2017-08-01T00:43:40.974Z,86.76
2017-08-01T00:44:41.614Z,86.86
2017-08-01T00:45:42.247Z,88.21
2017-08-01T00:46:42.896Z,86.86
2017-08-01T00:47:43.822Z,87.92
2017-08-01T00:48:44.461Z,87.92
2017-08-01T00:49:45.096Z,87.44
2017-08-01T00:50:45.728Z,88.02
2017-08-01T00:51:46.369Z,87.63
2017-08-01T00:52:47.009Z,87.44
2017-08-01T00:53:47.648Z,86.96
2017-08-01T00:54:48.282Z,88.02
2017-08-01T00:55:49.023Z,86.57
2017-08-01T00:56:49.706Z,87.34
2017-08-01T00:57:50.344Z,86.38
2017-08-01T00:58:50.980Z,87.24
2017-08-01T00:59:51.613Z,87.24
2017-08-01T01:00:52.249Z,88.50
2017-08-01T01:01:52.893Z,86.76
2017-08-01T01:02:53.531Z,87.15
2017-08-01T01:03:54.164Z,86.96
2017-08-01T01:04:55.010Z,87.53
2017-08-01T01:05:55.651Z,87.53
2017-08-01T01:06:56.283Z,87.63
2017-08-01T01:07:56.922Z,87.92
2017-08-01T01:08:57.554Z,88.21
2017-08-01T01:09:58.191Z,88.21
2017-08-01T01:10:58.827Z,87.53
2017-08-01T01:11:59.468Z,87.44
2017-08-01T01:13:00.300Z,87.34
2017-08-01T01:14:00.935Z,87.34
2017-08-01T01:15:01.573Z,88.11
2017-08-01T01:16:02.208Z,87.63
2017-08-01T01:17:02.850Z,87.53
2017-08-01T01:18:03.480Z,88.21
2017-08-01T01:19:04.117Z,87.44
2017-08-01T01:20:04.753Z,88.11
2017-08-01T01:21:05.545Z,87.63
2017-08-01T01:22:06.184Z,87.92
2017-08-01T01:23:06.821Z,88.21
2017-08-01T01:24:07.453Z,88.59
2017-08-01T01:25:08.087Z,87.24
2017-08-01T01:26:08.722Z,87.63
2017-08-01T01:27:09.373Z,87.92
2017-08-01T01:28:10.002Z,86.96
2017-08-01T01:29:10.835Z,88.50
2017-08-01T01:30:11.480Z,88.79
2017-08-01T01:31:12.112Z,88.31
2017-08-01T01:32:12.745Z,87.73
2017-08-01T01:33:13.381Z,88.11
2017-08-01T01:34:14.016Z,88.21
2017-08-01T01:35:14.657Z,88.11
2017-08-01T01:36:15.290Z,87.82
2017-08-01T01:37:16.928Z,88.11
2017-08-01T01:38:17.563Z,87.92
2017-08-01T01:39:18.199Z,88.02
2017-08-01T01:40:18.838Z,87.97
2017-08-01T01:41:19.474Z,87.92
2017-08-01T01:42:20.112Z,88.55
2017-08-01T01:43:20.745Z,87.97
2017-08-01T01:44:21.379Z,88.26
2017-08-01T01:45:22.025Z,88.21
2017-08-01T01:46:22.861Z,87.92
2017-08-01T01:47:23.500Z,87.82
2017-08-01T01:48:24.136Z,88.02
2017-08-01T01:49:24.776Z,88.84
2017-08-01T01:50:25.409Z,88.07
2017-08-01T01:51:26.042Z,87.97
2017-08-01T01:52:26.688Z,87.88
2017-08-01T01:53:27.319Z,88.26
2017-08-01T01:54:28.103Z,87.97
2017-08-01T01:55:28.746Z,87.97
2017-08-01T01:56:29.378Z,88.36
2017-08-01T01:57:30.019Z,88.07
2017-08-01T01:58:30.650Z,88.26
2017-08-01T01:59:31.293Z,88.55
2017-08-01T02:00:31.924Z,88.02
2017-08-01T02:01:32.559Z,88.07
2017-08-01T02:02:33.395Z,88.55
2017-08-01T02:03:34.027Z,88.26
2017-08-01T02:04:34.661Z,88.36
2017-08-01T02:05:35.304Z,88.45
2017-08-01T02:06:35.940Z,87.88
2017-08-01T02:07:36.585Z,88.45
2017-08-01T02:08:37.210Z,87.97
2017-08-01T02:09:37.853Z,88.17
2017-08-01T02:16:10.232Z,89.13
2017-08-01T02:17:10.868Z,88.55
2017-08-01T02:18:11.511Z,88.26
2017-08-01T03:45:38.536Z,89.28
2017-08-01T03:58:16.293Z,89.18
2017-08-01T06:06:32.335Z,90.24
2017-08-01T06:07:33.275Z,89.86
2017-08-01T06:14:18.735Z,89.47
2017-08-01T06:30:35.094Z,89.86
2017-08-01T06:37:54.962Z,90.53
2017-08-01T06:44:24.518Z,90.82
2017-08-01T06:46:28.404Z,90.15
2017-08-01T07:06:06.733Z,90.44
2017-08-01T07:07:07.368Z,91.20
2017-08-01T07:08:08.006Z,90.53
2017-08-01T07:09:08.641Z,90.63
2017-08-01T07:10:09.576Z,90.24
2017-08-01T07:11:10.209Z,90.44
2017-08-01T07:12:10.849Z,90.63
2017-08-01T07:13:11.487Z,90.72
2017-08-01T07:14:12.126Z,90.05
2017-08-01T07:15:12.759Z,90.63
2017-08-01T07:16:13.401Z,90.72
2017-08-01T07:17:14.030Z,90.34
2017-08-01T07:18:14.815Z,90.34
2017-08-01T07:19:15.462Z,89.47
2017-08-01T07:20:16.093Z,89.76
2017-08-01T07:21:16.729Z,89.76
2017-08-01T07:22:17.366Z,89.76
2017-08-01T07:23:18.006Z,90.15
2017-08-01T07:24:18.638Z,90.92
2017-08-01T07:25:19.276Z,90.34
2017-08-01T07:26:19.909Z,89.95
2017-08-01T07:27:20.843Z,90.05
2017-08-01T07:28:21.482Z,89.95
2017-08-01T07:29:22.114Z,90.34
2017-08-01T07:30:22.755Z,90.72
2017-08-01T07:31:23.398Z,89.95
2017-08-01T07:32:24.088Z,90.15
2017-08-01T07:33:24.724Z,89.57
2017-08-01T07:34:25.361Z,90.05
2017-08-01T07:35:26.293Z,89.57
2017-08-01T07:36:26.931Z,89.37
2017-08-01T07:37:27.565Z,90.15
2017-08-01T07:38:28.198Z,89.57
2017-08-01T07:39:28.832Z,90.24
2017-08-01T07:40:29.479Z,89.86
2017-08-01T07:41:30.115Z,90.24
2017-08-01T07:42:30.745Z,89.86
2017-08-01T07:43:31.589Z,90.15
2017-08-01T07:44:32.230Z,90.15
2017-08-01T07:45:32.859Z,90.82
2017-08-01T07:46:33.499Z,89.76
2017-08-01T07:47:34.132Z,89.86
2017-08-01T07:48:34.767Z,89.47
2017-08-01T07:49:35.402Z,89.37
2017-08-01T07:50:36.044Z,89.47
2017-08-01T07:51:36.875Z,88.79
2017-08-01T07:52:37.511Z,89.57
2017-08-01T07:53:38.148Z,89.37
2017-08-01T07:54:38.790Z,90.05
2017-08-01T07:55:39.419Z,89.57
2017-08-01T07:56:40.073Z,89.76
2017-08-01T07:57:40.693Z,89.47
2017-08-01T07:58:41.326Z,89.28
2017-08-01T07:59:42.120Z,89.67
2017-08-01T08:00:42.758Z,89.47
2017-08-01T08:01:43.342Z,89.09
2017-08-01T08:02:43.973Z,89.18
2017-08-01T08:03:44.605Z,89.67
2017-08-01T08:04:45.241Z,89.67
2017-08-01T08:05:45.886Z,89.67
2017-08-01T08:06:46.520Z,89.57
2017-08-01T08:07:47.153Z,89.18
2017-08-01T08:08:47.997Z,88.70
2017-08-01T08:09:48.630Z,89.76
2017-08-01T08:10:49.267Z,89.37
2017-08-01T08:11:49.953Z,89.67
2017-08-01T08:12:50.640Z,89.76
2017-08-01T08:13:51.279Z,89.28
2017-08-01T08:14:51.911Z,89.42
2017-08-01T08:15:52.555Z,89.18
2017-08-01T08:16:53.281Z,88.89
2017-08-01T08:17:53.914Z,88.60
2017-08-01T08:18:54.553Z,89.86
2017-08-01T08:19:55.193Z,89.71
2017-08-01T08:20:55.882Z,88.51
2017-08-01T08:21:56.515Z,87.83
2017-08-01T08:22:57.147Z,88.79
2017-08-01T08:23:57.794Z,88.70
2017-08-01T08:24:58.732Z,89.28
2017-08-01T08:25:59.371Z,89.28
2017-08-01T08:27:00.008Z,89.09
2017-08-01T08:28:00.650Z,90.24
2017-08-01T08:29:01.279Z,88.41
2017-08-01T08:30:01.925Z,88.02
2017-08-01T08:31:02.561Z,87.54
2017-08-01T08:32:03.190Z,87.16
2017-08-01T08:33:04.076Z,88.02
2017-08-01T08:34:04.717Z,88.02
2017-08-01T08:35:05.349Z,87.26
2017-08-01T08:36:05.991Z,87.35
2017-08-01T08:37:06.624Z,88.02
2017-08-01T08:38:07.276Z,88.79
2017-08-01T08:39:07.897Z,90.44
2017-08-01T08:40:08.533Z,89.18
2017-08-01T08:41:09.169Z,88.70
2017-08-01T08:42:10.003Z,90.72
2017-08-01T08:43:10.637Z,91.40
2017-08-01T08:44:11.231Z,91.11
2017-08-01T08:45:11.867Z,90.19
2017-08-01T08:46:12.506Z,90.09
2017-08-01T08:47:13.140Z,90.48
2017-08-01T08:48:13.780Z,90.96
2017-08-01T08:49:14.418Z,90.29
2017-08-01T08:50:15.254Z,86.72
2017-08-01T08:51:15.891Z,87.97
2017-08-01T08:52:16.526Z,89.81
2017-08-01T08:53:17.162Z,89.90
2017-08-01T08:54:17.801Z,89.51
2017-08-01T08:55:18.437Z,89.51
2017-08-01T08:56:19.078Z,89.90
2017-08-01T08:57:19.713Z,89.61
2017-08-01T08:58:20.551Z,89.23
2017-08-01T08:59:21.186Z,88.55
2017-08-01T09:00:21.829Z,86.62
2017-08-01T09:01:22.464Z,89.23
2017-08-01T09:02:23.050Z,88.45
2017-08-01T09:03:23.687Z,89.03
2017-08-01T09:04:24.327Z,88.65
2017-08-01T09:05:24.962Z,88.02
2017-08-01T09:06:25.701Z,88.40
2017-08-01T09:07:26.336Z,89.03
2017-08-01T09:08:26.978Z,88.50
2017-08-01T09:09:27.610Z,88.40
2017-08-01T09:10:28.250Z,86.96
2017-08-01T09:11:28.891Z,88.21
2017-08-01T09:12:29.524Z,88.02
2017-08-01T09:13:30.166Z,88.02
2017-08-01T09:14:30.955Z,87.15
2017-08-01T09:15:31.590Z,86.08
2017-08-01T09:16:32.227Z,87.44
2017-08-01T09:17:32.864Z,85.02
2017-08-01T09:18:33.501Z,87.63
2017-08-01T09:19:34.136Z,86.96
2017-08-01T09:20:34.772Z,85.70
2017-08-01T09:21:35.410Z,86.28
2017-08-01T09:22:36.060Z,85.89
2017-08-01T09:23:36.985Z,85.70
2017-08-01T09:24:37.627Z,86.57
2017-08-01T09:25:38.265Z,85.89
2017-08-01T09:26:38.906Z,86.66
2017-08-01T09:27:39.540Z,83.67
2017-08-01T09:28:40.175Z,85.80
2017-08-01T09:29:40.816Z,85.02
2017-08-01T09:30:41.455Z,84.06
2017-08-01T09:31:42.399Z,84.64
2017-08-01T09:32:43.030Z,86.08
2017-08-01T09:33:43.678Z,83.96
2017-08-01T09:34:44.315Z,84.74
2017-08-01T09:35:44.948Z,85.41
2017-08-01T09:36:45.583Z,85.31
2017-08-01T09:37:46.216Z,84.35
2017-08-01T09:38:46.859Z,86.08
2017-08-01T09:39:47.692Z,85.99
2017-08-01T09:40:48.336Z,84.93
2017-08-01T09:41:48.969Z,84.64
2017-08-01T09:42:49.612Z,86.08
2017-08-01T09:43:50.246Z,83.58
2017-08-01T09:44:50.879Z,83.09
2017-08-01T09:45:51.515Z,85.50
2017-08-01T09:46:52.153Z,83.29
2017-08-01T09:47:52.989Z,85.22
2017-08-01T09:48:53.632Z,86.28
2017-08-01T09:49:54.272Z,82.90
2017-08-01T09:50:54.911Z,83.29
2017-08-01T09:51:55.554Z,83.77
2017-08-01T09:52:56.189Z,83.67
2017-08-01T09:53:56.829Z,85.60
2017-08-01T09:54:57.464Z,86.28
2017-08-01T09:55:58.102Z,86.18
2017-08-01T09:56:58.937Z,85.89
2017-08-01T09:57:59.582Z,86.18
2017-08-01T09:59:00.214Z,84.16
2017-08-01T10:00:00.858Z,84.44
2017-08-01T10:01:01.492Z,85.60
2017-08-01T10:02:02.134Z,86.08
2017-08-01T10:03:02.768Z,86.08
2017-08-01T10:04:03.404Z,85.99
2017-08-01T10:05:04.242Z,85.02
2017-08-01T10:06:04.877Z,85.41
2017-08-01T10:07:05.519Z,83.77
2017-08-01T10:08:06.153Z,85.89
2017-08-01T10:09:06.790Z,85.70
2017-08-01T10:10:07.428Z,85.22
2017-08-01T10:11:08.063Z,85.89
2017-08-01T10:12:08.703Z,85.80
2017-08-01T10:13:09.538Z,83.96
2017-08-01T10:14:10.181Z,84.06
2017-08-01T10:15:10.825Z,82.71
2017-08-01T10:16:11.464Z,85.12
2017-08-01T10:17:12.109Z,84.83
2017-08-01T10:18:12.745Z,84.93
2017-08-01T10:19:13.378Z,85.80
2017-08-01T10:20:14.013Z,82.13
2017-08-01T10:21:14.853Z,84.16
2017-08-01T10:22:15.490Z,82.71
2017-08-01T10:23:16.131Z,84.54
2017-08-01T10:24:16.768Z,84.83
2017-08-01T10:25:17.405Z,84.25
2017-08-01T10:26:18.091Z,84.93
2017-08-01T10:27:18.732Z,85.26
2017-08-01T10:28:19.366Z,84.93
2017-08-01T10:29:20.210Z,83.42
2017-08-01T10:30:20.851Z,82.84
2017-08-01T10:31:21.489Z,83.91
2017-08-01T10:32:22.130Z,84.39
2017-08-01T10:33:22.775Z,81.49
2017-08-01T10:34:23.410Z,83.62
2017-08-01T10:35:24.048Z,81.68
2017-08-01T10:36:24.686Z,83.52
2017-08-01T10:37:25.321Z,83.23
2017-08-01T10:38:26.166Z,83.91
2017-08-01T10:39:26.804Z,84.00
2017-08-01T10:40:27.445Z,82.07
2017-08-01T10:41:28.080Z,82.65
2017-08-01T10:42:28.713Z,82.17
2017-08-01T10:43:29.352Z,83.91
2017-08-01T10:44:29.990Z,84.20
2017-08-01T10:45:30.631Z,83.62
2017-08-01T10:46:31.421Z,84.10
2017-08-01T10:47:32.057Z,84.00
2017-08-01T10:48:32.692Z,82.56
2017-08-01T10:49:33.328Z,82.36
2017-08-01T10:50:33.964Z,81.01
2017-08-01T10:51:34.608Z,80.05
2017-08-01T10:52:35.247Z,80.62
2017-08-01T10:53:35.886Z,80.91
2017-08-01T10:54:36.618Z,80.43
2017-08-01T10:55:37.255Z,81.30
2017-08-01T10:56:37.899Z,80.53
2017-08-01T10:57:38.540Z,80.53
2017-08-01T10:58:39.176Z,81.44
2017-08-01T10:59:40.062Z,80.95
2017-08-01T11:00:40.705Z,79.12
2017-08-01T11:01:41.338Z,80.76
2017-08-01T11:02:41.975Z,81.34
2017-08-01T11:03:42.665Z,81.44
2017-08-01T11:04:43.308Z,81.82
2017-08-01T11:05:43.950Z,82.40
2017-08-01T11:06:44.586Z,81.92
2017-08-01T11:07:45.374Z,81.24
2017-08-01T11:08:46.021Z,81.82
2017-08-01T11:09:46.708Z,82.60
2017-08-01T11:10:47.346Z,82.50
2017-08-01T11:11:47.989Z,82.79
2017-08-01T11:12:48.624Z,82.40
2017-08-01T11:13:49.264Z,82.60
2017-08-01T11:14:49.901Z,82.11
2017-08-01T11:15:50.776Z,81.53
2017-08-01T11:16:51.775Z,81.73
2017-08-01T11:17:52.408Z,82.40
2017-08-01T11:18:53.047Z,81.63
2017-08-01T11:19:53.693Z,82.40
2017-08-01T11:20:54.331Z,82.50
2017-08-01T11:21:54.969Z,82.21
2017-08-01T11:22:55.566Z,80.66
2017-08-01T11:23:56.191Z,80.66
2017-08-01T11:24:57.034Z,80.38
2017-08-01T11:25:57.672Z,79.70
2017-08-01T11:26:58.318Z,80.38
2017-08-01T11:27:58.954Z,80.76
2017-08-01T11:28:59.587Z,80.76
2017-08-01T11:30:00.234Z,80.76
2017-08-01T11:31:00.873Z,79.50
2017-08-01T11:32:01.462Z,80.57
2017-08-01T11:33:02.348Z,81.05
2017-08-01T11:34:02.993Z,80.99
2017-08-01T11:35:03.628Z,81.34
2017-08-01T11:36:04.265Z,79.99
2017-08-01T11:37:04.951Z,80.03
2017-08-01T11:38:05.587Z,80.03
2017-08-01T11:39:06.576Z,80.18
2017-08-01T11:40:07.221Z,80.76
2017-08-01T11:41:07.853Z,81.05
2017-08-01T11:42:08.492Z,81.05
2017-08-01T11:43:09.130Z,80.71
2017-08-01T11:44:09.819Z,81.48
2017-08-01T11:45:10.521Z,81.48
2017-08-01T11:46:11.151Z,81.09
2017-08-01T11:47:11.936Z,81.48
2017-08-01T11:48:12.586Z,81.92
2017-08-01T11:49:13.222Z,81.96
2017-08-01T11:50:13.857Z,80.71
2017-08-01T11:51:14.490Z,81.57
2017-08-01T11:52:15.135Z,81.57
2017-08-01T11:53:15.781Z,82.15
2017-08-01T11:54:16.411Z,80.71
2017-08-01T11:55:17.310Z,81.96
2017-08-01T11:56:17.942Z,81.87
2017-08-01T11:57:18.586Z,80.99
2017-08-01T11:58:19.220Z,81.57
2017-08-01T11:59:19.863Z,82.15
2017-08-01T12:00:20.496Z,81.67
2017-08-01T12:01:21.135Z,82.15
2017-08-01T12:02:21.772Z,82.35
2017-08-01T12:03:22.659Z,82.45
2017-08-01T12:04:23.302Z,81.67
2017-08-01T12:05:23.943Z,80.80
2017-08-01T12:06:24.582Z,81.57
2017-08-01T12:07:25.222Z,82.45
2017-08-01T12:08:25.862Z,82.54
2017-08-01T12:09:26.503Z,82.54
2017-08-01T12:10:27.143Z,82.45
2017-08-01T12:11:27.782Z,82.83
2017-08-01T12:12:28.680Z,82.35
2017-08-01T12:13:29.320Z,82.64
2017-08-01T12:14:29.962Z,82.35
2017-08-01T12:15:30.603Z,82.45
2017-08-01T12:16:31.237Z,83.31
2017-08-01T12:17:31.880Z,82.45
2017-08-01T12:18:32.512Z,83.22
2017-08-01T12:19:33.151Z,82.73
2017-08-01T12:20:34.038Z,82.73
2017-08-01T12:21:34.676Z,83.31
2017-08-01T12:22:35.313Z,82.83
2017-08-01T12:23:35.950Z,82.73
2017-08-01T12:24:36.590Z,83.22
2017-08-01T12:25:37.225Z,82.93
2017-08-01T12:26:37.864Z,83.41
2017-08-01T12:27:38.506Z,83.22
2017-08-01T12:28:39.396Z,83.22
2017-08-01T12:29:40.039Z,83.22
2017-08-01T12:30:40.674Z,83.31
2017-08-01T12:31:41.316Z,83.51
2017-08-01T12:32:41.955Z,83.22
2017-08-01T12:33:42.595Z,83.22
2017-08-01T12:34:43.237Z,83.12
2017-08-01T12:35:43.879Z,83.12
2017-08-01T12:36:44.714Z,82.93
2017-08-01T12:37:45.358Z,83.31
2017-08-01T12:38:46.000Z,82.54
2017-08-01T12:39:46.639Z,82.35
2017-08-01T12:40:47.273Z,83.22
2017-08-01T12:41:47.909Z,82.35
2017-08-01T12:42:48.555Z,82.64
2017-08-01T12:43:49.185Z,82.45
2017-08-01T12:44:50.021Z,82.64
2017-08-01T12:45:50.660Z,82.83
2017-08-01T12:46:51.304Z,82.73
2017-08-01T12:47:51.940Z,83.26
2017-08-01T12:48:52.577Z,83.22
2017-08-01T12:49:53.217Z,83.36
2017-08-01T12:50:53.852Z,83.31
2017-08-01T12:51:54.491Z,82.73
2017-08-01T12:52:55.131Z,82.73
2017-08-01T12:53:55.968Z,82.58
2017-08-01T12:54:56.613Z,82.20
2017-08-01T12:55:57.253Z,82.87
2017-08-01T12:56:57.895Z,83.06
2017-08-01T12:57:58.534Z,81.71
2017-08-01T12:58:59.170Z,82.25
2017-08-01T12:59:59.863Z,81.32
2017-08-01T13:01:00.504Z,81.71
2017-08-01T13:02:01.440Z,81.81
2017-08-01T13:03:02.080Z,79.87
2017-08-01T13:04:02.716Z,81.23
2017-08-01T13:05:03.360Z,81.52
2017-08-01T13:06:03.996Z,81.62
2017-08-01T13:07:04.639Z,81.52
2017-08-01T13:08:05.282Z,80.80
2017-08-01T13:09:05.925Z,80.65
2017-08-01T13:10:06.769Z,81.23
2017-08-01T13:11:07.467Z,80.84
2017-08-01T13:12:08.106Z,80.16
2017-08-01T13:13:08.801Z,81.04
2017-08-01T13:14:09.434Z,80.94
2017-08-01T13:15:10.077Z,80.84
2017-08-01T13:16:10.712Z,81.32
2017-08-01T13:17:11.356Z,81.13
2017-08-01T13:18:12.307Z,81.32
2017-08-01T13:19:12.943Z,80.84
2017-08-01T13:20:13.585Z,81.32
2017-08-01T13:21:14.219Z,81.04
2017-08-01T13:22:14.861Z,81.13
2017-08-01T13:23:15.501Z,78.52
2017-08-01T13:24:16.136Z,79.58
2017-08-01T13:25:16.782Z,80.74
2017-08-01T13:26:17.420Z,80.65
2017-08-01T13:27:18.263Z,79.49
2017-08-01T13:28:18.898Z,80.16
2017-08-01T13:29:19.536Z,79.00
2017-08-01T13:30:20.173Z,78.61
2017-08-01T13:31:20.810Z,79.68
2017-08-01T13:32:21.451Z,79.39
2017-08-01T13:33:22.086Z,79.29
2017-08-01T13:34:22.730Z,78.91
2017-08-01T13:35:23.568Z,78.91
2017-08-01T13:36:24.203Z,79.78
2017-08-01T13:37:24.841Z,80.07
2017-08-01T13:38:25.485Z,79.87
2017-08-01T13:39:26.126Z,78.71
2017-08-01T13:40:26.771Z,78.61
2017-08-01T13:41:27.403Z,77.45
2017-08-01T13:42:28.039Z,78.33
2017-08-01T13:43:28.831Z,78.61
2017-08-01T13:44:29.468Z,79.39
2017-08-01T13:45:30.108Z,79.49
2017-08-01T13:46:30.748Z,79.39
2017-08-01T13:47:31.385Z,79.78
2017-08-01T13:48:32.075Z,79.29
2017-08-01T13:49:32.714Z,79.29
2017-08-01T13:50:33.351Z,78.71
2017-08-01T13:51:34.246Z,77.17
2017-08-01T13:52:34.880Z,77.07
2017-08-01T13:53:35.518Z,77.26
2017-08-01T13:54:36.158Z,78.52
2017-08-01T13:55:36.800Z,78.52
2017-08-01T13:56:37.433Z,78.13
2017-08-01T13:57:38.072Z,79.10
2017-08-01T13:58:38.770Z,78.42
2017-08-01T13:59:39.654Z,78.81
2017-08-01T14:00:40.289Z,78.42
2017-08-01T14:01:40.936Z,78.23
2017-08-01T14:02:41.578Z,77.75
2017-08-01T14:03:42.222Z,77.94
2017-08-01T14:04:42.855Z,77.94
2017-08-01T14:05:43.493Z,78.23
2017-08-01T14:06:44.130Z,77.26
2017-08-01T14:07:44.769Z,77.17
2017-08-01T14:08:45.559Z,75.13
2017-08-01T14:09:46.196Z,76.29
2017-08-01T14:10:46.837Z,77.75
2017-08-01T14:11:47.472Z,78.33
2017-08-01T14:12:48.110Z,77.55
2017-08-01T14:13:48.760Z,77.75
2017-08-01T14:14:49.393Z,78.03
2017-08-01T14:15:50.040Z,78.23
2017-08-01T14:16:50.882Z,77.84
2017-08-01T14:17:51.515Z,77.65
2017-08-01T14:18:52.153Z,78.03
2017-08-01T14:19:52.791Z,77.26
2017-08-01T14:20:53.434Z,77.55
2017-08-01T14:21:54.077Z,77.75
2017-08-01T14:22:54.776Z,76.97
2017-08-01T14:23:55.408Z,77.55
2017-08-01T14:24:56.253Z,78.03
2017-08-01T14:25:56.894Z,76.59
2017-08-01T14:26:57.528Z,77.45
2017-08-01T14:27:58.171Z,77.55
2017-08-01T14:28:58.801Z,78.03
2017-08-01T14:29:59.441Z,77.75
2017-08-01T14:31:00.080Z,77.07
2017-08-01T14:32:00.729Z,76.97
2017-08-01T14:33:01.562Z,77.75
2017-08-01T14:34:02.200Z,78.03
2017-08-01T14:35:02.838Z,77.94
2017-08-01T14:36:03.476Z,77.84
2017-08-01T14:37:04.116Z,78.13
2017-08-01T14:38:04.801Z,77.75
2017-08-01T14:39:05.441Z,77.94
2017-08-01T14:40:06.106Z,78.03
2017-08-01T14:41:06.772Z,77.65
2017-08-01T14:42:07.711Z,75.04
2017-08-01T14:43:08.355Z,76.20
2017-08-01T14:44:08.944Z,77.36
2017-08-01T14:45:09.585Z,77.84
2017-08-01T14:46:10.224Z,75.81
2017-08-01T14:47:10.858Z,77.26
2017-08-01T14:48:11.496Z,77.36
2017-08-01T14:49:12.141Z,77.26
2017-08-01T14:50:13.031Z,77.26
2017-08-01T14:51:13.668Z,77.36
2017-08-01T14:52:14.312Z,77.36
2017-08-01T14:53:14.948Z,75.13
2017-08-01T14:54:15.586Z,75.62
2017-08-01T14:55:16.224Z,75.33
2017-08-01T14:56:16.861Z,75.43
2017-08-01T14:57:17.510Z,75.81
2017-08-01T14:58:18.289Z,76.10
2017-08-01T14:59:18.929Z,76.39
2017-08-01T15:00:19.565Z,75.81
2017-08-01T15:01:20.210Z,74.36
2017-08-01T15:02:20.841Z,76.39
2017-08-01T15:03:21.487Z,76.49
2017-08-01T15:04:22.119Z,76.20
2017-08-01T15:05:22.759Z,76.68
2017-08-01T15:06:23.602Z,77.07
2017-08-01T15:07:24.241Z,77.07
2017-08-01T15:08:24.881Z,76.78
2017-08-01T15:09:25.513Z,76.78
2017-08-01T15:10:26.155Z,77.07
2017-08-01T15:11:26.792Z,76.29
2017-08-01T15:12:27.380Z,75.91
2017-08-01T15:13:28.020Z,76.87
2017-08-01T15:14:28.910Z,77.07
2017-08-01T15:15:29.548Z,75.43
2017-08-01T15:16:30.184Z,74.65
2017-08-01T15:17:30.824Z,73.20
2017-08-01T15:18:31.463Z,72.95
2017-08-01T15:19:32.105Z,71.78
2017-08-01T15:20:32.744Z,73.49
2017-08-01T15:21:33.387Z,75.37
2017-08-01T15:22:34.021Z,74.11
2017-08-01T15:23:34.807Z,74.79
2017-08-01T15:24:35.443Z,74.69
2017-08-01T15:25:36.084Z,75.07
2017-08-01T15:26:36.728Z,74.98
2017-08-01T15:27:37.425Z,74.88
2017-08-01T15:28:38.055Z,74.59
2017-08-01T15:29:38.700Z,74.59
2017-08-01T15:30:39.344Z,74.49
2017-08-01T15:31:40.231Z,74.59
2017-08-01T15:32:40.864Z,73.33
2017-08-01T15:33:41.503Z,75.07
2017-08-01T15:34:42.141Z,74.69
2017-08-01T15:35:42.780Z,73.91
2017-08-01T15:36:43.423Z,74.11
2017-08-01T15:37:44.059Z,75.07
2017-08-01T15:38:44.696Z,74.49
2017-08-01T15:39:45.534Z,74.30
2017-08-01T15:40:46.172Z,75.46
2017-08-01T15:41:46.815Z,75.46
2017-08-01T15:42:47.460Z,75.17
2017-08-01T15:43:48.096Z,74.88
2017-08-01T15:44:48.732Z,75.75
2017-08-01T15:45:49.367Z,74.88
2017-08-01T15:46:50.017Z,74.69
2017-08-01T15:47:50.854Z,73.72
2017-08-01T15:48:51.494Z,75.17
2017-08-01T15:49:52.178Z,75.37
2017-08-01T15:50:53.715Z,73.33
2017-08-01T15:51:54.351Z,73.63
2017-08-01T15:52:54.989Z,75.85
2017-08-01T15:53:55.635Z,75.27
2017-08-01T15:54:56.268Z,75.85
2017-08-01T15:55:56.904Z,76.14
2017-08-01T15:56:57.745Z,74.98
2017-08-01T15:57:58.387Z,74.88
2017-08-01T15:58:59.023Z,75.27
2017-08-01T15:59:59.669Z,75.17
2017-08-01T16:01:00.309Z,74.88
2017-08-01T16:02:00.994Z,75.17
2017-08-01T16:03:01.632Z,75.75
2017-08-01T16:04:02.272Z,75.85
2017-08-01T16:05:03.213Z,75.56
2017-08-01T16:06:03.853Z,75.17
2017-08-01T16:07:04.491Z,75.07
2017-08-01T16:08:05.128Z,75.46
2017-08-01T16:09:05.768Z,75.37
2017-08-01T16:10:06.413Z,75.95
2017-08-01T16:11:07.059Z,76.04
2017-08-01T16:12:07.697Z,75.95
2017-08-01T16:13:08.638Z,75.75
2017-08-01T16:14:09.277Z,75.37
2017-08-01T16:15:09.915Z,75.46
2017-08-01T16:16:10.554Z,75.75
2017-08-01T16:17:11.193Z,76.24
2017-08-01T16:18:11.836Z,76.82
2017-08-01T16:19:12.428Z,77.40
2017-08-01T16:20:13.063Z,77.11
2017-08-01T16:21:13.907Z,77.11
2017-08-01T16:22:14.544Z,77.01
2017-08-01T16:23:15.193Z,76.43
2017-08-01T16:24:15.845Z,77.01
2017-08-01T16:25:16.476Z,77.69
2017-08-01T16:26:17.110Z,77.59
2017-08-01T16:27:17.750Z,77.78
2017-08-01T16:28:18.393Z,77.78
2017-08-01T16:29:19.179Z,77.20
2017-08-01T16:30:19.826Z,77.20
2017-08-01T16:31:20.461Z,77.88
2017-08-01T16:32:21.105Z,77.59
2017-08-01T16:33:21.749Z,78.27
2017-08-01T16:34:22.392Z,77.78
2017-08-01T16:35:23.025Z,77.78
2017-08-01T16:36:23.664Z,76.33
2017-08-01T16:37:24.306Z,77.59
2017-08-01T16:38:25.140Z,77.59
2017-08-01T16:39:25.784Z,76.43
2017-08-01T16:40:26.421Z,77.50
2017-08-01T16:41:27.058Z,77.78
2017-08-01T16:42:27.699Z,77.98
2017-08-01T16:43:28.336Z,78.17
2017-08-01T16:44:28.976Z,77.40
2017-08-01T16:45:29.628Z,76.82
2017-08-01T16:46:30.262Z,77.20
2017-08-01T16:47:30.912Z,77.98
2017-08-01T16:48:31.548Z,78.27
2017-08-01T16:49:32.191Z,77.98
2017-08-01T16:50:32.827Z,78.46
2017-08-01T16:51:33.475Z,76.82
2017-08-01T16:52:34.119Z,77.01
2017-08-01T16:53:34.753Z,77.11
2017-08-01T16:54:35.596Z,77.78
2017-08-01T16:55:36.233Z,77.98
2017-08-01T16:56:36.872Z,76.04
2017-08-01T16:57:37.511Z,77.11
2017-08-01T16:58:38.155Z,75.37
2017-08-01T16:59:38.797Z,76.91
2017-08-01T17:00:39.438Z,76.33
2017-08-01T17:01:40.081Z,76.24
2017-08-01T17:02:40.869Z,77.01
2017-08-01T17:03:41.509Z,76.04
2017-08-01T17:04:42.151Z,77.11
2017-08-01T17:05:42.798Z,77.88
2017-08-01T17:06:43.481Z,76.82
2017-08-01T17:07:44.119Z,77.01
2017-08-01T17:08:44.763Z,77.59
2017-08-01T17:09:45.451Z,77.78
2017-08-01T17:10:46.090Z,78.36
2017-08-01T17:11:47.026Z,77.78
2017-08-01T17:12:47.671Z,76.82
2017-08-01T17:13:48.306Z,76.43
2017-08-01T17:14:48.955Z,78.08
2017-08-01T17:15:49.597Z,77.78
2017-08-01T17:16:50.287Z,77.98
2017-08-01T17:17:50.934Z,76.43
2017-08-01T17:18:51.577Z,77.30
2017-08-01T17:19:52.362Z,77.20
2017-08-01T17:20:53.008Z,77.40
2017-08-01T17:21:53.648Z,78.08
2017-08-01T17:22:54.289Z,78.17
2017-08-01T17:23:54.931Z,77.20
2017-08-01T17:24:55.573Z,77.20
2017-08-01T17:25:56.209Z,77.98
2017-08-01T17:26:56.850Z,77.11
2017-08-01T17:27:57.699Z,76.43
2017-08-01T17:28:58.338Z,78.46
2017-08-01T17:29:58.981Z,78.46
2017-08-01T17:30:59.618Z,78.11
2017-08-01T17:32:00.257Z,77.78
2017-08-01T17:33:00.901Z,78.02
2017-08-01T17:34:01.535Z,77.92
2017-08-01T17:35:02.175Z,77.24
2017-08-01T17:36:03.069Z,77.98
2017-08-01T17:37:03.738Z,77.50
2017-08-01T17:38:04.354Z,77.78
2017-08-01T17:39:04.997Z,76.95
2017-08-01T17:40:05.632Z,77.14
2017-08-01T17:41:06.270Z,77.63
2017-08-01T17:42:06.966Z,78.31
2017-08-01T17:43:07.603Z,77.01
2017-08-01T17:44:08.493Z,75.31
2017-08-01T17:45:09.135Z,75.98
2017-08-01T17:46:09.774Z,76.18
2017-08-01T17:47:10.415Z,74.34
2017-08-01T17:48:11.053Z,77.14
2017-08-01T17:49:11.698Z,77.24
2017-08-01T17:50:12.339Z,77.34
2017-08-01T17:51:12.976Z,77.44
2017-08-01T17:52:13.615Z,75.70
2017-08-01T17:53:14.458Z,76.18
2017-08-01T17:54:15.100Z,75.70
2017-08-01T17:55:15.686Z,76.33
2017-08-01T17:56:16.332Z,76.86
2017-08-01T17:57:16.973Z,76.95